Aberdaron, United Kingdom
Current Conditions -  °F | °C
As of 6:50 AM on Monday 22 Dec 2014 (Local Time) from EGOV Reporting Station
Haze Haze  
Wind Chill: 12°   Ceiling: 2300
Heat Index: 12°   Visibility: 4mi
Dew Point: 10°   Wind: 35mph
Humidity: 88%   Direction: 210°SSW
Pressure: 29.85"   Gusts: NA
Location:  52.78°N, 4.73°W
Report Text: EGOV 220650Z AUTO 21030KT 7000 HZ BKN023/// BKN180/// 12/10 Q1011
Loading
Personal Weather Stations






























Interactive Weather Map New forecast layout! Learn more

10-Day Weather Forecast

Advertisements
Track Severe Weather on mobile